Time;durP1;ratioP1;P1;durP2;ratioP2;P2;SDS_P1;SDS_P2;PMS_P1;PMS_P2;Temp;Humidity;BMP_temperature;BMP_pressure;BME280_temperature;BME280_humidity;BME280_pressure;Samples;Min_cycle;Max_cycle;Signal;HPM_P1;HPM_P2
2022/01/09 00:03:34;;;;;;;;;;;16.20;38.90;;;;;;8299883;28;19921;-49
2022/01/09 00:07:35;;;;;;;;;;;16.10;38.80;;;;;;8300680;28;19922;-49
2022/01/09 00:11:35;;;;;;;;;;;16.10;38.90;;;;;;8300904;28;19925;-48
2022/01/09 00:15:36;;;;;;;;;;;16.10;38.90;;;;;;8301321;28;20009;-48
2022/01/09 00:19:36;;;;;;;;;;;16.10;38.90;;;;;;8300186;28;19925;-49
2022/01/09 00:23:37;;;;;;;;;;;16.10;39.00;;;;;;8300617;28;20008;-49
2022/01/09 00:27:37;;;;;;;;;;;16.10;39.00;;;;;;8300796;28;19968;-49
2022/01/09 00:31:38;;;;;;;;;;;16.10;39.00;;;;;;8299857;28;19921;-49
2022/01/09 00:35:38;;;;;;;;;;;16.00;39.00;;;;;;8299791;28;19972;-48
2022/01/09 00:39:39;;;;;;;;;;;16.00;39.00;;;;;;8300099;28;19918;-49
2022/01/09 00:43:39;;;;;;;;;;;16.00;39.00;;;;;;8299559;28;19936;-49
2022/01/09 00:47:40;;;;;;;;;;;16.00;39.00;;;;;;8299726;28;19921;-48
2022/01/09 00:51:41;;;;;;;;;;;16.00;39.00;;;;;;8300003;28;20020;-48
2022/01/09 00:55:41;;;;;;;;;;;16.00;39.00;;;;;;8299295;28;19943;-46
2022/01/09 00:59:41;;;;;;;;;;;16.00;39.00;;;;;;8299405;28;19940;-51
2022/01/09 01:03:42;;;;;;;;;;;16.00;39.00;;;;;;8299457;28;19932;-49
2022/01/09 01:07:42;;;;;;;;;;;16.00;39.00;;;;;;8298893;28;20021;-49
2022/01/09 01:11:43;;;;;;;;;;;16.00;39.10;;;;;;8299584;28;19944;-49
2022/01/09 01:15:43;;;;;;;;;;;16.00;39.20;;;;;;8299260;28;19924;-48
2022/01/09 01:19:44;;;;;;;;;;;16.00;39.10;;;;;;8298537;28;19921;-51
2022/01/09 01:23:44;;;;;;;;;;;16.00;39.30;;;;;;8298735;28;19929;-49
2022/01/09 01:27:45;;;;;;;;;;;16.10;39.20;;;;;;8298749;28;20244;-49
2022/01/09 01:31:46;;;;;;;;;;;16.10;39.30;;;;;;8298364;28;19925;-50
2022/01/09 01:35:46;;;;;;;;;;;16.10;39.30;;;;;;8298759;28;19917;-49
2022/01/09 01:39:47;;;;;;;;;;;16.10;39.30;;;;;;8298232;28;20282;-49
2022/01/09 01:43:47;;;;;;;;;;;16.10;39.20;;;;;;8297902;28;20321;-51
2022/01/09 01:47:48;;;;;;;;;;;16.10;39.20;;;;;;8298510;28;20384;-48
2022/01/09 01:51:48;;;;;;;;;;;16.10;39.20;;;;;;8298384;28;19921;-50
2022/01/09 01:55:53;;;;;;;;;;;16.20;39.20;;;;;;8297496;28;20048;-48
2022/01/09 01:59:54;;;;;;;;;;;16.20;39.20;;;;;;8297803;28;20015;-48
2022/01/09 02:03:55;;;;;;;;;;;16.10;39.20;;;;;;8296993;28;20263;-52
2022/01/09 02:07:58;;;;;;;;;;;16.10;39.10;;;;;;8297220;28;19918;-48
2022/01/09 02:11:58;;;;;;;;;;;16.10;39.20;;;;;;8298142;28;19926;-48
2022/01/09 02:16:01;;;;;;;;;;;16.10;39.20;;;;;;8297675;28;20363;-49
2022/01/09 02:20:03;;;;;;;;;;;16.10;39.20;;;;;;8296940;28;19929;-48
2022/01/09 02:24:07;;;;;;;;;;;16.10;39.20;;;;;;8297968;28;19917;-50
2022/01/09 02:28:08;;;;;;;;;;;16.10;39.20;;;;;;8297372;28;19963;-50
2022/01/09 02:32:09;;;;;;;;;;;16.10;39.20;;;;;;8297047;28;19917;-49
2022/01/09 02:36:09;;;;;;;;;;;16.10;39.30;;;;;;8297117;28;19987;-48
2022/01/09 02:40:10;;;;;;;;;;;16.10;39.30;;;;;;8296993;28;19941;-48
2022/01/09 02:44:11;;;;;;;;;;;16.10;39.30;;;;;;8296588;28;19918;-49
2022/01/09 02:48:11;;;;;;;;;;;16.00;39.40;;;;;;8297353;28;19928;-48
2022/01/09 02:52:25;;;;;;;;;;;16.00;39.30;;;;;;8297323;28;20371;-50
2022/01/09 02:56:25;;;;;;;;;;;16.00;39.40;;;;;;8296959;28;19963;-48
2022/01/09 03:00:25;;;;;;;;;;;16.00;39.40;;;;;;8300301;28;19922;-48
2022/01/09 03:04:26;;;;;;;;;;;16.00;39.40;;;;;;8302676;28;20370;-48
2022/01/09 03:08:26;;;;;;;;;;;16.00;39.50;;;;;;8302789;28;19929;-47
2022/01/09 03:12:27;;;;;;;;;;;16.00;39.50;;;;;;8303092;28;20016;-48
2022/01/09 03:16:27;;;;;;;;;;;16.00;39.50;;;;;;8302350;28;19917;-48
2022/01/09 03:20:28;;;;;;;;;;;16.00;39.60;;;;;;8302582;28;19921;-49
2022/01/09 03:24:28;;;;;;;;;;;16.00;39.60;;;;;;8302408;28;19918;-48
2022/01/09 03:28:29;;;;;;;;;;;16.00;39.60;;;;;;8301779;28;20369;-50
2022/01/09 03:32:29;;;;;;;;;;;16.00;39.60;;;;;;8302875;28;19913;-48
2022/01/09 03:36:30;;;;;;;;;;;16.00;40.10;;;;;;8302270;28;19963;-49
2022/01/09 03:40:30;;;;;;;;;;;16.00;39.60;;;;;;8301505;28;20298;-51
2022/01/09 03:44:31;;;;;;;;;;;16.00;39.60;;;;;;8302037;28;20008;-48
2022/01/09 03:48:32;;;;;;;;;;;16.00;39.60;;;;;;8301737;28;19933;-47
2022/01/09 03:52:34;;;;;;;;;;;16.10;39.60;;;;;;8301630;28;19917;-49
2022/01/09 03:56:34;;;;;;;;;;;16.10;39.50;;;;;;8301422;28;19917;-49
2022/01/09 04:00:34;;;;;;;;;;;16.00;39.50;;;;;;8301451;28;19968;-48
2022/01/09 04:04:35;;;;;;;;;;;16.10;39.50;;;;;;8300710;28;19918;-49
2022/01/09 04:08:35;;;;;;;;;;;16.10;39.50;;;;;;8301009;28;19933;-47
2022/01/09 04:12:47;;;;;;;;;;;16.10;39.50;;;;;;8300044;28;19917;-48
2022/01/09 04:16:47;;;;;;;;;;;16.00;39.50;;;;;;8302060;28;19921;-48
2022/01/09 04:20:48;;;;;;;;;;;16.10;39.60;;;;;;8300827;28;20386;-47
2022/01/09 04:24:49;;;;;;;;;;;16.10;39.60;;;;;;8300722;28;19924;-49
2022/01/09 04:28:49;;;;;;;;;;;16.10;39.50;;;;;;8300065;28;19957;-50
2022/01/09 04:32:50;;;;;;;;;;;16.10;39.50;;;;;;8300587;28;19914;-47
2022/01/09 04:36:50;;;;;;;;;;;16.10;39.50;;;;;;8300063;28;20007;-47
2022/01/09 04:40:51;;;;;;;;;;;16.10;39.50;;;;;;8299485;28;19918;-47
2022/01/09 04:44:51;;;;;;;;;;;16.10;39.50;;;;;;8299945;28;19929;-48
2022/01/09 04:48:54;;;;;;;;;;;16.10;39.50;;;;;;8300081;28;19925;-47
2022/01/09 04:53:00;;;;;;;;;;;16.10;39.50;;;;;;8300335;28;19964;-48
2022/01/09 04:57:02;;;;;;;;;;;16.10;39.50;;;;;;8303298;28;19932;-48
2022/01/09 05:01:02;;;;;;;;;;;16.10;39.50;;;;;;8300790;28;19917;-51
2022/01/09 05:05:04;;;;;;;;;;;16.10;39.50;;;;;;8300140;28;19923;-49
2022/01/09 05:09:04;;;;;;;;;;;16.10;39.50;;;;;;8299836;28;19930;-48
2022/01/09 05:13:05;;;;;;;;;;;16.00;39.50;;;;;;8299514;28;19968;-51
2022/01/09 05:17:05;;;;;;;;;;;16.00;39.50;;;;;;8298699;28;19944;-47
2022/01/09 05:21:06;;;;;;;;;;;16.00;39.50;;;;;;8299010;28;19928;-48
2022/01/09 05:25:06;;;;;;;;;;;16.00;39.50;;;;;;8298538;28;19922;-49
2022/01/09 05:29:07;;;;;;;;;;;16.00;39.50;;;;;;8298197;28;19932;-48
2022/01/09 05:33:07;;;;;;;;;;;16.00;39.50;;;;;;8298790;28;19913;-48
2022/01/09 05:37:08;;;;;;;;;;;16.00;39.50;;;;;;8298411;28;19968;-49
2022/01/09 05:41:08;;;;;;;;;;;16.00;39.50;;;;;;8297798;28;19968;-48
2022/01/09 05:45:09;;;;;;;;;;;16.00;40.00;;;;;;8298252;28;20429;-49
2022/01/09 05:49:09;;;;;;;;;;;16.00;39.50;;;;;;8297976;28;19925;-48
2022/01/09 05:53:10;;;;;;;;;;;16.00;39.50;;;;;;8297834;28;19913;-48
2022/01/09 05:57:10;;;;;;;;;;;16.00;40.00;;;;;;8298089;28;19959;-46
2022/01/09 06:01:11;;;;;;;;;;;16.00;39.50;;;;;;8297806;28;19925;-49
2022/01/09 06:05:11;;;;;;;;;;;16.00;39.50;;;;;;8297315;28;19917;-48
2022/01/09 06:09:12;;;;;;;;;;;16.00;39.50;;;;;;8296307;28;19932;-47
2022/01/09 06:13:12;;;;;;;;;;;16.00;39.50;;;;;;8297849;28;19928;-47
2022/01/09 06:17:13;;;;;;;;;;;16.00;39.50;;;;;;8296909;28;19925;-47
2022/01/09 06:21:13;;;;;;;;;;;16.00;39.50;;;;;;8297452;28;19917;-47
2022/01/09 06:25:15;;;;;;;;;;;16.00;39.50;;;;;;8297332;28;19949;-47
2022/01/09 06:29:15;;;;;;;;;;;16.00;39.50;;;;;;8296614;28;19928;-47
2022/01/09 06:33:16;;;;;;;;;;;15.90;39.50;;;;;;8296217;28;20326;-47
2022/01/09 06:37:16;;;;;;;;;;;15.90;39.50;;;;;;8303929;28;19992;-46
2022/01/09 06:41:17;;;;;;;;;;;16.00;39.50;;;;;;8303260;28;20259;-48
2022/01/09 06:45:17;;;;;;;;;;;15.90;39.50;;;;;;8303687;28;20362;-47
2022/01/09 06:49:17;;;;;;;;;;;16.00;39.50;;;;;;8303468;28;19922;-49
2022/01/09 06:53:18;;;;;;;;;;;15.90;39.50;;;;;;8303126;28;20000;-47
2022/01/09 06:57:18;;;;;;;;;;;15.90;39.50;;;;;;8303307;28;19925;-48
2022/01/09 07:01:19;;;;;;;;;;;15.90;39.50;;;;;;8303202;28;19936;-47
2022/01/09 07:05:19;;;;;;;;;;;15.90;39.40;;;;;;8302555;28;19922;-47
2022/01/09 07:09:20;;;;;;;;;;;15.90;39.50;;;;;;8302837;28;20012;-47
2022/01/09 07:13:20;;;;;;;;;;;16.00;39.50;;;;;;8302651;28;19924;-48
2022/01/09 07:17:20;;;;;;;;;;;15.90;39.50;;;;;;8302177;28;19926;-49
2022/01/09 07:21:21;;;;;;;;;;;15.90;39.50;;;;;;8302766;28;19921;-48
2022/01/09 07:25:21;;;;;;;;;;;15.90;39.40;;;;;;8302609;28;19943;-50
2022/01/09 07:29:22;;;;;;;;;;;15.90;39.40;;;;;;8301818;28;19922;-50
2022/01/09 07:33:22;;;;;;;;;;;15.90;39.40;;;;;;8302612;28;19917;-49
2022/01/09 07:37:25;;;;;;;;;;;15.90;39.50;;;;;;8302095;28;19918;-46
2022/01/09 07:41:26;;;;;;;;;;;15.90;39.40;;;;;;8300604;28;20422;-49
2022/01/09 07:45:27;;;;;;;;;;;15.90;39.40;;;;;;8301818;28;19926;-48
2022/01/09 07:49:28;;;;;;;;;;;15.90;39.40;;;;;;8301604;28;19992;-48
2022/01/09 07:53:28;;;;;;;;;;;15.90;39.50;;;;;;8301853;28;19917;-48
2022/01/09 07:57:29;;;;;;;;;;;15.90;39.40;;;;;;8301457;28;19921;-49
2022/01/09 08:01:29;;;;;;;;;;;15.90;39.40;;;;;;8300892;28;19925;-47
2022/01/09 08:05:30;;;;;;;;;;;16.00;39.40;;;;;;8300385;28;19924;-47
2022/01/09 08:09:30;;;;;;;;;;;15.90;39.40;;;;;;8301322;28;20311;-47
2022/01/09 08:13:30;;;;;;;;;;;15.90;39.40;;;;;;8300537;28;19917;-47
2022/01/09 08:17:31;;;;;;;;;;;15.90;39.40;;;;;;8300784;28;20335;-47
2022/01/09 08:21:31;;;;;;;;;;;15.90;39.40;;;;;;8300614;28;20293;-47
2022/01/09 08:25:32;;;;;;;;;;;15.90;39.40;;;;;;8300097;28;20441;-47
2022/01/09 08:29:33;;;;;;;;;;;16.00;39.60;;;;;;8300909;28;19959;-47
2022/01/09 08:33:33;;;;;;;;;;;15.90;39.60;;;;;;8300492;28;20030;-47
2022/01/09 08:37:34;;;;;;;;;;;16.00;39.70;;;;;;8299666;28;19964;-47
2022/01/09 08:41:34;;;;;;;;;;;16.00;39.90;;;;;;8300138;28;19925;-48
2022/01/09 08:45:34;;;;;;;;;;;16.00;39.90;;;;;;8300221;28;20429;-46
2022/01/09 08:49:35;;;;;;;;;;;16.10;40.00;;;;;;8299651;28;20019;-48
2022/01/09 08:53:36;;;;;;;;;;;16.10;40.00;;;;;;8300015;28;19963;-49
2022/01/09 08:57:36;;;;;;;;;;;16.10;39.90;;;;;;8299052;28;19922;-48
2022/01/09 09:01:37;;;;;;;;;;;16.20;39.90;;;;;;8299173;28;19960;-50
2022/01/09 09:05:37;;;;;;;;;;;16.20;39.80;;;;;;8299373;28;20374;-49
2022/01/09 09:09:38;;;;;;;;;;;16.20;39.90;;;;;;8299444;28;19926;-51
2022/01/09 09:13:39;;;;;;;;;;;16.20;39.90;;;;;;8298741;28;19925;-48
2022/01/09 09:17:39;;;;;;;;;;;16.20;39.90;;;;;;8299134;28;20326;-47
2022/01/09 09:21:40;;;;;;;;;;;16.20;39.90;;;;;;8299196;28;20343;-47
2022/01/09 09:25:40;;;;;;;;;;;16.10;39.80;;;;;;8298380;28;19917;-52
2022/01/09 09:29:41;;;;;;;;;;;16.20;39.80;;;;;;8298707;28;19921;-47
2022/01/09 09:33:41;;;;;;;;;;;16.20;39.80;;;;;;8298649;28;20296;-47
2022/01/09 09:37:41;;;;;;;;;;;16.20;39.70;;;;;;8297950;28;20004;-48
2022/01/09 09:41:42;;;;;;;;;;;16.20;39.70;;;;;;8298451;28;20271;-49
2022/01/09 09:45:43;;;;;;;;;;;16.20;40.30;;;;;;8298340;28;20333;-47
2022/01/09 09:49:43;;;;;;;;;;;16.20;39.70;;;;;;8297840;28;22063;-46
2022/01/09 09:53:43;;;;;;;;;;;16.20;39.70;;;;;;8298149;28;19924;-46
2022/01/09 09:57:45;;;;;;;;;;;16.20;39.60;;;;;;8297911;28;20330;-49
2022/01/09 10:01:45;;;;;;;;;;;16.20;39.70;;;;;;8297320;28;19918;-52
2022/01/09 10:05:46;;;;;;;;;;;16.20;39.60;;;;;;8297498;28;20362;-48
2022/01/09 10:09:56;;;;;;;;;;;16.20;39.60;;;;;;8296706;28;19933;-48
2022/01/09 10:14:09;;;;;;;;;;;16.20;39.60;;;;;;8297141;28;19944;-49
2022/01/09 10:18:10;;;;;;;;;;;16.20;39.60;;;;;;8297365;28;20294;-48
2022/01/09 10:22:29;;;;;;;;;;;16.20;39.50;;;;;;8297570;28;19925;-46
2022/01/09 10:26:30;;;;;;;;;;;16.20;39.60;;;;;;8297292;28;19924;-47
2022/01/09 10:30:36;;;;;;;;;;;16.20;39.60;;;;;;8297307;28;19975;-49
2022/01/09 10:34:37;;;;;;;;;;;16.20;39.70;;;;;;8296961;28;19921;-48
2022/01/09 10:38:39;;;;;;;;;;;16.20;39.50;;;;;;8297434;28;19940;-48
2022/01/09 10:42:40;;;;;;;;;;;16.20;39.60;;;;;;8297301;28;20366;-48
2022/01/09 10:46:40;;;;;;;;;;;16.20;39.50;;;;;;8296832;28;19976;-49
2022/01/09 10:50:42;;;;;;;;;;;16.20;39.50;;;;;;8297250;28;20330;-51
2022/01/09 10:54:46;;;;;;;;;;;16.20;39.50;;;;;;8297519;28;19956;-48
2022/01/09 10:58:51;;;;;;;;;;;16.20;39.50;;;;;;8296519;28;20366;-47
2022/01/09 11:02:51;;;;;;;;;;;16.20;39.50;;;;;;8295556;28;20033;-48
2022/01/09 11:06:53;;;;;;;;;;;16.20;39.50;;;;;;8296032;28;20375;-48
2022/01/09 11:10:54;;;;;;;;;;;16.20;39.50;;;;;;8296258;28;19928;-51
2022/01/09 11:14:54;;;;;;;;;;;16.20;39.40;;;;;;8296864;28;19914;-48
2022/01/09 11:18:56;;;;;;;;;;;16.20;39.40;;;;;;8296785;28;20291;-48
2022/01/09 11:22:59;;;;;;;;;;;16.20;39.50;;;;;;8301657;28;19968;-48
2022/01/09 11:27:22;;;;;;;;;;;16.20;39.50;;;;;;8302396;28;19918;-46
2022/01/09 11:31:30;;;;;;;;;;;16.20;39.40;;;;;;8302283;28;19932;-47
2022/01/09 11:35:49;;;;;;;;;;;16.20;39.40;;;;;;8302111;28;20341;-47
2022/01/09 11:39:49;;;;;;;;;;;16.10;39.40;;;;;;8302160;28;19921;-48
2022/01/09 11:43:54;;;;;;;;;;;16.20;39.50;;;;;;8301523;28;19948;-48
2022/01/09 11:47:54;;;;;;;;;;;16.20;39.50;;;;;;8301908;28;19980;-47
2022/01/09 11:51:59;;;;;;;;;;;16.20;39.50;;;;;;8301570;28;19921;-52
2022/01/09 11:56:00;;;;;;;;;;;16.20;39.50;;;;;;8301072;28;19918;-47
2022/01/09 12:00:00;;;;;;;;;;;16.20;39.50;;;;;;8301339;28;20441;-48
2022/01/09 12:04:01;;;;;;;;;;;16.20;39.50;;;;;;8301222;28;19976;-47
2022/01/09 12:08:02;;;;;;;;;;;16.20;39.50;;;;;;8300371;28;19917;-48
2022/01/09 12:12:02;;;;;;;;;;;16.20;39.50;;;;;;8300793;28;19922;-48
2022/01/09 12:16:03;;;;;;;;;;;16.20;39.50;;;;;;8300773;28;19918;-49
2022/01/09 12:20:13;;;;;;;;;;;16.20;39.50;;;;;;8300099;28;19917;-49
2022/01/09 12:24:32;;;;;;;;;;;16.20;39.50;;;;;;8300643;28;19918;-48
2022/01/09 12:28:38;;;;;;;;;;;16.20;39.50;;;;;;8299867;28;19920;-48
2022/01/09 12:32:44;;;;;;;;;;;16.20;39.60;;;;;;8299231;28;19924;-48
2022/01/09 12:36:46;;;;;;;;;;;16.20;39.50;;;;;;8300291;28;19941;-48
2022/01/09 12:40:46;;;;;;;;;;;16.20;39.50;;;;;;8299830;28;19940;-48
2022/01/09 12:44:53;;;;;;;;;;;16.20;39.60;;;;;;8300148;28;19922;-47
2022/01/09 12:48:54;;;;;;;;;;;16.20;39.50;;;;;;8299646;28;19925;-48
2022/01/09 12:53:13;;;;;;;;;;;16.20;39.60;;;;;;8299263;28;19940;-48
2022/01/09 12:57:14;;;;;;;;;;;16.20;39.60;;;;;;8299766;28;19960;-50
2022/01/09 13:01:16;;;;;;;;;;;16.10;39.50;;;;;;8299843;28;20401;-49
2022/01/09 13:05:20;;;;;;;;;;;16.20;39.60;;;;;;8298691;28;19992;-49
2022/01/09 13:09:24;;;;;;;;;;;16.20;39.60;;;;;;8299212;28;19925;-50
2022/01/09 13:13:25;;;;;;;;;;;16.20;39.60;;;;;;8299349;28;19922;-49
2022/01/09 13:17:25;;;;;;;;;;;16.20;39.60;;;;;;8298980;28;19965;-50
2022/01/09 13:21:31;;;;;;;;;;;16.20;39.60;;;;;;8299141;28;19913;-49
2022/01/09 13:25:41;;;;;;;;;;;16.20;39.50;;;;;;8298381;28;19918;-52
2022/01/09 13:29:42;;;;;;;;;;;16.20;39.60;;;;;;8298560;28;20019;-52
2022/01/09 13:33:48;;;;;;;;;;;16.20;39.60;;;;;;8298875;28;19921;-52
2022/01/09 13:37:55;;;;;;;;;;;16.20;39.60;;;;;;8297220;28;20029;-49
2022/01/09 13:41:55;;;;;;;;;;;16.20;39.50;;;;;;8298304;28;19914;-49
2022/01/09 13:46:09;;;;;;;;;;;16.20;39.60;;;;;;8298565;28;19928;-51
2022/01/09 13:50:11;;;;;;;;;;;16.10;39.50;;;;;;8297555;28;19976;-48
2022/01/09 13:54:13;;;;;;;;;;;16.20;39.50;;;;;;8298120;28;20008;-52
2022/01/09 13:58:14;;;;;;;;;;;16.20;39.50;;;;;;8298145;28;19961;-49
2022/01/09 14:02:16;;;;;;;;;;;16.20;39.60;;;;;;8296284;28;19913;-52
2022/01/09 14:06:20;;;;;;;;;;;16.20;39.50;;;;;;8297753;28;19914;-52
2022/01/09 14:10:30;;;;;;;;;;;16.20;39.50;;;;;;8297503;28;19964;-48
2022/01/09 14:14:31;;;;;;;;;;;16.20;39.50;;;;;;8297133;28;19929;-48
2022/01/09 14:18:32;;;;;;;;;;;16.20;39.60;;;;;;8297846;28;20421;-48
2022/01/09 14:22:40;;;;;;;;;;;16.20;39.60;;;;;;8296965;28;19918;-51
2022/01/09 14:26:52;;;;;;;;;;;16.20;39.50;;;;;;8296346;28;19968;-48
2022/01/09 14:31:02;;;;;;;;;;;16.10;39.50;;;;;;8297547;28;19981;-48
2022/01/09 14:35:02;;;;;;;;;;;16.10;39.50;;;;;;8296941;28;19940;-52
2022/01/09 14:39:04;;;;;;;;;;;16.10;39.50;;;;;;8297577;28;19917;-49
2022/01/09 14:43:05;;;;;;;;;;;16.20;39.60;;;;;;8297220;28;19918;-49
2022/01/09 14:47:05;;;;;;;;;;;16.20;39.60;;;;;;8297517;28;20020;-49
2022/01/09 14:51:07;;;;;;;;;;;16.20;39.60;;;;;;8297177;28;19971;-49
2022/01/09 14:55:08;;;;;;;;;;;16.20;39.60;;;;;;8298279;28;19921;-49
2022/01/09 14:59:08;;;;;;;;;;;16.20;39.60;;;;;;8285157;28;20291;-49
2022/01/09 15:03:09;;;;;;;;;;;16.20;39.60;;;;;;8303192;28;19960;-48
2022/01/09 15:07:10;;;;;;;;;;;16.10;39.50;;;;;;8303462;28;19970;-48
2022/01/09 15:11:10;;;;;;;;;;;16.10;39.60;;;;;;8302500;28;20020;-49
2022/01/09 15:15:11;;;;;;;;;;;16.10;39.50;;;;;;8302921;28;20359;-48
2022/01/09 15:19:12;;;;;;;;;;;16.10;39.60;;;;;;8302928;28;20000;-48
2022/01/09 15:23:12;;;;;;;;;;;16.20;39.60;;;;;;8302631;28;20291;-49
2022/01/09 15:27:13;;;;;;;;;;;16.10;39.60;;;;;;8302824;28;20429;-48
2022/01/09 15:31:14;;;;;;;;;;;16.10;39.60;;;;;;8302354;28;19926;-48
2022/01/09 15:35:15;;;;;;;;;;;16.20;39.70;;;;;;8301856;28;19918;-48
2022/01/09 15:39:15;;;;;;;;;;;16.10;39.80;;;;;;8302373;28;19921;-48
2022/01/09 15:43:16;;;;;;;;;;;16.20;39.90;;;;;;8302090;28;19917;-49
2022/01/09 15:47:16;;;;;;;;;;;16.20;40.00;;;;;;8301914;28;20000;-47
2022/01/09 15:51:19;;;;;;;;;;;16.20;40.10;;;;;;8301723;28;19933;-48
2022/01/09 15:55:19;;;;;;;;;;;16.20;40.20;;;;;;8301740;28;20329;-48
2022/01/09 15:59:20;;;;;;;;;;;16.20;40.10;;;;;;8301047;28;19952;-47
2022/01/09 16:03:21;;;;;;;;;;;16.30;40.10;;;;;;8301525;28;20385;-47
2022/01/09 16:07:21;;;;;;;;;;;16.30;39.90;;;;;;8301578;28;19918;-49
2022/01/09 16:11:22;;;;;;;;;;;16.30;40.10;;;;;;8300598;28;20417;-49
2022/01/09 16:15:22;;;;;;;;;;;16.30;40.10;;;;;;8300952;28;19929;-49
2022/01/09 16:19:23;;;;;;;;;;;16.30;40.10;;;;;;8300865;28;19960;-48
2022/01/09 16:23:23;;;;;;;;;;;16.30;40.10;;;;;;8300297;28;20291;-48
2022/01/09 16:27:23;;;;;;;;;;;16.30;40.10;;;;;;8300902;28;19921;-50
2022/01/09 16:31:24;;;;;;;;;;;16.30;40.10;;;;;;8300764;28;20016;-48
2022/01/09 16:35:26;;;;;;;;;;;16.30;40.10;;;;;;8300109;28;19917;-48
2022/01/09 16:39:28;;;;;;;;;;;16.30;40.10;;;;;;8300382;28;19913;-47
2022/01/09 16:43:28;;;;;;;;;;;16.30;40.10;;;;;;8299772;28;19918;-49
2022/01/09 16:47:29;;;;;;;;;;;16.30;40.00;;;;;;8300570;28;20308;-47
2022/01/09 16:51:30;;;;;;;;;;;16.30;40.00;;;;;;8300064;28;19925;-47
2022/01/09 16:55:30;;;;;;;;;;;16.30;40.00;;;;;;8299220;28;19960;-48
2022/01/09 16:59:30;;;;;;;;;;;16.30;40.00;;;;;;8299717;28;19987;-47
2022/01/09 17:03:33;;;;;;;;;;;16.30;40.00;;;;;;8299718;28;20322;-47
2022/01/09 17:07:34;;;;;;;;;;;16.30;40.00;;;;;;8298404;28;19952;-47
2022/01/09 17:11:35;;;;;;;;;;;16.30;39.90;;;;;;8299465;28;20508;-48
2022/01/09 17:15:35;;;;;;;;;;;16.30;40.00;;;;;;8299304;28;19965;-48
2022/01/09 17:19:36;;;;;;;;;;;16.30;40.00;;;;;;8298072;28;19920;-48
2022/01/09 17:23:37;;;;;;;;;;;16.20;39.90;;;;;;8299384;28;19914;-49
2022/01/09 17:27:38;;;;;;;;;;;16.20;39.90;;;;;;8299150;28;19937;-48
2022/01/09 17:31:38;;;;;;;;;;;16.20;40.00;;;;;;8298149;28;19934;-48
2022/01/09 17:35:39;;;;;;;;;;;16.20;39.90;;;;;;8298787;28;20008;-47
2022/01/09 17:39:39;;;;;;;;;;;16.20;39.90;;;;;;8298768;28;19914;-48
2022/01/09 17:43:40;;;;;;;;;;;16.20;39.90;;;;;;8298201;28;20306;-47
2022/01/09 17:47:41;;;;;;;;;;;16.20;39.90;;;;;;8298796;28;20390;-48
2022/01/09 17:51:41;;;;;;;;;;;16.20;39.90;;;;;;8298031;28;19929;-48
2022/01/09 17:55:42;;;;;;;;;;;16.20;39.90;;;;;;8297569;28;19975;-48
2022/01/09 17:59:45;;;;;;;;;;;16.20;39.90;;;;;;8298014;28;20386;-48
2022/01/09 18:03:45;;;;;;;;;;;16.20;39.90;;;;;;8298138;28;19947;-51
2022/01/09 18:07:46;;;;;;;;;;;16.20;39.90;;;;;;8297946;28;25203;-48
2022/01/09 18:11:47;;;;;;;;;;;16.20;39.90;;;;;;8297834;28;19929;-49
2022/01/09 18:15:47;;;;;;;;;;;16.20;39.90;;;;;;8297751;28;20293;-48
2022/01/09 18:19:48;;;;;;;;;;;16.10;39.90;;;;;;8297032;28;20306;-50
2022/01/09 18:23:49;;;;;;;;;;;16.20;40.00;;;;;;8297745;28;19924;-49
2022/01/09 18:27:49;;;;;;;;;;;16.20;40.00;;;;;;8297710;28;19917;-48
2022/01/09 18:31:51;;;;;;;;;;;16.20;40.00;;;;;;8295921;28;19929;-48
2022/01/09 18:35:51;;;;;;;;;;;16.10;39.90;;;;;;8297431;28;19929;-48
2022/01/09 18:39:54;;;;;;;;;;;16.20;39.90;;;;;;8297507;28;19984;-48
2022/01/09 18:43:54;;;;;;;;;;;16.20;39.90;;;;;;8296903;28;20004;-50
2022/01/09 18:47:55;;;;;;;;;;;16.20;39.90;;;;;;8297686;28;19922;-47
2022/01/09 18:51:56;;;;;;;;;;;16.20;39.90;;;;;;8297092;28;19948;-50
2022/01/09 18:55:56;;;;;;;;;;;16.20;39.90;;;;;;8296478;28;19918;-50
2022/01/09 18:59:57;;;;;;;;;;;16.10;39.80;;;;;;8297129;28;19917;-48
2022/01/09 19:03:59;;;;;;;;;;;16.20;39.80;;;;;;8297100;28;20338;-48
2022/01/09 19:07:59;;;;;;;;;;;16.10;39.80;;;;;;8296626;28;19918;-49
2022/01/09 19:12:00;;;;;;;;;;;16.10;39.90;;;;;;8296721;28;20008;-49
2022/01/09 19:16:01;;;;;;;;;;;16.10;40.50;;;;;;8296576;28;20363;-51
2022/01/09 19:20:03;;;;;;;;;;;16.10;39.90;;;;;;8296137;28;19918;-49
2022/01/09 19:24:04;;;;;;;;;;;16.10;40.00;;;;;;8296864;28;19920;-49
2022/01/09 19:28:04;;;;;;;;;;;16.10;39.90;;;;;;8296454;28;20295;-49
2022/01/09 19:32:05;;;;;;;;;;;16.10;39.90;;;;;;8295857;28;20311;-50
2022/01/09 19:36:06;;;;;;;;;;;16.10;39.90;;;;;;8296439;28;19999;-52
2022/01/09 19:40:07;;;;;;;;;;;16.10;40.00;;;;;;8296348;28;20371;-51
2022/01/09 19:44:08;;;;;;;;;;;16.10;40.00;;;;;;8301622;28;19921;-49
2022/01/09 19:48:09;;;;;;;;;;;16.10;40.00;;;;;;8302241;28;20008;-50
2022/01/09 19:52:11;;;;;;;;;;;16.10;39.90;;;;;;8301832;28;20333;-50
2022/01/09 19:56:11;;;;;;;;;;;16.10;39.90;;;;;;8301264;28;20318;-49
2022/01/09 20:00:13;;;;;;;;;;;16.10;39.90;;;;;;8301873;28;19921;-50
2022/01/09 20:04:13;;;;;;;;;;;16.10;39.90;;;;;;8301757;28;19917;-52
2022/01/09 20:08:14;;;;;;;;;;;16.10;40.30;;;;;;8300253;28;19925;-49
2022/01/09 20:12:14;;;;;;;;;;;16.10;39.80;;;;;;8300934;28;19926;-48
2022/01/09 20:16:19;;;;;;;;;;;16.10;39.80;;;;;;8301097;28;19919;-48
2022/01/09 20:20:21;;;;;;;;;;;16.10;40.10;;;;;;8300539;28;20008;-49
2022/01/09 20:24:24;;;;;;;;;;;16.10;39.80;;;;;;8301104;28;19913;-50
2022/01/09 20:28:24;;;;;;;;;;;16.10;39.70;;;;;;8300861;28;19991;-52
2022/01/09 20:32:25;;;;;;;;;;;16.10;39.70;;;;;;8299980;28;20148;-52
2022/01/09 20:36:26;;;;;;;;;;;16.10;39.70;;;;;;8300748;28;19914;-52
2022/01/09 20:40:27;;;;;;;;;;;16.10;39.80;;;;;;8300480;28;19918;-50
2022/01/09 20:44:30;;;;;;;;;;;16.10;39.80;;;;;;8300182;28;19963;-49
2022/01/09 20:48:31;;;;;;;;;;;16.00;40.30;;;;;;8300556;28;19921;-53
2022/01/09 20:52:32;;;;;;;;;;;16.10;40.20;;;;;;8297256;28;19925;-50
2022/01/09 20:56:33;;;;;;;;;;;16.10;39.70;;;;;;8299883;28;19925;-50
2022/01/09 21:00:34;;;;;;;;;;;16.00;39.70;;;;;;8299902;28;20422;-50
2022/01/09 21:04:35;;;;;;;;;;;16.10;39.70;;;;;;8299431;28;19917;-50
2022/01/09 21:08:35;;;;;;;;;;;16.00;39.70;;;;;;8299381;28;20000;-52
2022/01/09 21:12:37;;;;;;;;;;;16.00;39.70;;;;;;8299391;28;20402;-51
2022/01/09 21:16:37;;;;;;;;;;;16.00;39.60;;;;;;8298758;28;20422;-50
2022/01/09 21:20:38;;;;;;;;;;;16.10;39.60;;;;;;8299236;28;19917;-51
2022/01/09 21:24:40;;;;;;;;;;;16.10;39.70;;;;;;8299350;28;20294;-49
2022/01/09 21:28:42;;;;;;;;;;;16.10;39.60;;;;;;8298589;28;19917;-49
2022/01/09 21:32:42;;;;;;;;;;;16.00;39.60;;;;;;8298788;28;19975;-49
2022/01/09 21:36:43;;;;;;;;;;;16.00;39.60;;;;;;8298991;28;19956;-49
2022/01/09 21:40:43;;;;;;;;;;;16.00;39.50;;;;;;8298274;28;19918;-49
2022/01/09 21:44:44;;;;;;;;;;;16.00;39.50;;;;;;8298717;28;20430;-49
2022/01/09 21:48:44;;;;;;;;;;;16.00;39.50;;;;;;8298427;28;19945;-50
2022/01/09 21:52:44;;;;;;;;;;;16.00;39.50;;;;;;8297763;28;19929;-49
2022/01/09 21:56:53;;;;;;;;;;;16.00;39.50;;;;;;8297872;28;21383;-50
2022/01/09 22:00:53;;;;;;;;;;;16.00;39.50;;;;;;8298244;28;19914;-48
2022/01/09 22:04:54;;;;;;;;;;;16.00;40.20;;;;;;8297679;28;19917;-53
2022/01/09 22:08:54;;;;;;;;;;;16.00;39.80;;;;;;8298203;28;19917;-52
2022/01/09 22:12:55;;;;;;;;;;;16.00;39.80;;;;;;8297840;28;19924;-49
2022/01/09 22:16:58;;;;;;;;;;;16.00;39.80;;;;;;8297253;28;20210;-49
2022/01/09 22:20:58;;;;;;;;;;;16.00;39.90;;;;;;8297846;28;19917;-51
2022/01/09 22:24:59;;;;;;;;;;;16.10;40.00;;;;;;8297775;28;20048;-48
2022/01/09 22:28:59;;;;;;;;;;;16.10;39.90;;;;;;8296946;28;19932;-49
2022/01/09 22:33:02;;;;;;;;;;;16.10;39.90;;;;;;8297293;28;19925;-49
2022/01/09 22:37:03;;;;;;;;;;;16.10;40.00;;;;;;8297364;28;19914;-49
2022/01/09 22:41:04;;;;;;;;;;;16.10;39.90;;;;;;8296706;28;20394;-48
2022/01/09 22:45:05;;;;;;;;;;;16.10;39.80;;;;;;8297581;28;19932;-49
2022/01/09 22:49:05;;;;;;;;;;;16.10;39.80;;;;;;8297072;28;19922;-49
2022/01/09 22:53:06;;;;;;;;;;;16.10;39.90;;;;;;8296634;28;19929;-49
2022/01/09 22:57:07;;;;;;;;;;;16.10;39.80;;;;;;8297285;28;19917;-48
2022/01/09 23:01:08;;;;;;;;;;;16.10;39.80;;;;;;8296416;28;20375;-52
2022/01/09 23:05:08;;;;;;;;;;;16.10;39.70;;;;;;8296102;28;20448;-48
2022/01/09 23:09:09;;;;;;;;;;;16.10;39.70;;;;;;8296753;28;19937;-47
2022/01/09 23:13:09;;;;;;;;;;;16.10;39.70;;;;;;8296820;28;19925;-50
2022/01/09 23:17:10;;;;;;;;;;;16.10;39.70;;;;;;8299241;28;20030;-49
2022/01/09 23:21:10;;;;;;;;;;;16.00;39.70;;;;;;8303131;28;19917;-48
2022/01/09 23:25:11;;;;;;;;;;;16.00;39.70;;;;;;8303061;28;19917;-50